Airfield :
LOGIN :

Register | Disclaimer

   EN    FR    IT 

 










Legend :    VFR   Marginal VFR   IFR   Intensive IFR   Very Intensive IFR
Visi :
Ceiling :
>= 8 km
>= 3000ft
5 to 8 km
1000 to 3000 ft
1500m to 5 km
500 to 1000 ft
800 to 1500m
200 to 500 ft
< 800m
< 200 ft
Symbols :   Thunderstorms  Fog  Heavy snow  Heavy precipitations  Wind > 20 kt
SIGMETs :     Misc.  Thunderstorms  Icing  Turbulence  Mountain Waves  Volcanic Ashes







- Airport Elevation : 656 ft
- IATA code : CMN


GMMN - Casablanca Mohammed V

CURRENT METAR :
  • 201200Z 09004KT 030V150 CAVOK 18/12 Q1021 NOSIG

EXPIRED METARs :
  • 201130Z 03005KT 360V080 CAVOK 17/12 Q1021 NOSIG
  • 201100Z 06006KT 030V090 CAVOK 16/11 Q1021 NOSIG
  • 201030Z 07003KT 020V160 CAVOK 15/12 Q1021 NOSIG
  • 201000Z 00000KT CAVOK 13/12 Q1021 NOSIG
  • 200930Z 00000KT 8000 NSC 11/11 Q1020 NOSIG

TAF TAF GMMN
Valid from the 20 at 12:00 until the 21 at 18:00 UTC


201100Z 2012/2118 05007KT CAVOK
BECMG 2012/2016 34012KT
BECMG 2020/2024 18006KT
PROB30
TEMPO 2100/2108 2000 BR SCT005
BECMG 2111/2115 36012KT
No reported NOTAMs for that airfield.



MET'MAP, your aeronautical weather chart ! - Copyright ORBIFLY December 2007 - Disclaimer

ORBIFLY MET'MAP TEAM :

Programming & Development : Alexandra Zaïnal
Concept & Development : Baudouin d'Aumeries
Co-Development & Prog : Marc-Olivier Méhu
Technical & hardware support : Manuel Goepfert

Contact : metmap@orbifly.com




SOURCES & CREDITS :

   NOAA